Olmito, Texas
Current Conditions -  °F | °C
As of 8:53 PM on Wednesday 26 Nov 2014 (Local Time) from KBRO Reporting Station
Clear Clear  
Wind Chill: 12°   Ceiling: Unl
Heat Index: 12°   Visibility: 10mi
Dew Point: 11°   Wind: 3mph
Humidity: 90%   Direction: 150°SSE
Pressure: 30.3"   Gusts: NA
Location:  26.02°N, 97.53°W
Report Text: KBRO 270253Z 15003KT 10SM CLR 12/11 A3030 RMK AO2 SLP260 T01220106 51020
Loading
Personal Weather Stations






























Interactive Weather Map New forecast layout! Learn more

10-Day Weather Forecast

Advertisements
Track Severe Weather on mobile